createdAt,value
2019-02-11T00:03:59.601Z,98718.80
2019-02-11T00:08:58.710Z,98717.61
2019-02-11T00:14:02.805Z,98733.53
2019-02-11T00:19:07.240Z,98738.66
2019-02-11T00:24:11.289Z,98741.41
2019-02-11T00:29:16.565Z,98749.75
2019-02-11T00:34:20.639Z,98751.20
2019-02-11T00:39:24.701Z,98769.05
2019-02-11T00:44:29.464Z,98792.91
2019-02-11T00:49:33.544Z,98806.56
2019-02-11T00:54:37.945Z,98825.70
2019-02-11T00:59:42.255Z,98834.56
2019-02-11T01:04:46.298Z,98847.20
2019-02-11T01:09:51.249Z,98857.09
2019-02-11T01:14:55.280Z,98884.94
2019-02-11T01:19:59.385Z,98889.31
2019-02-11T01:25:03.633Z,98909.02
2019-02-11T01:30:10.197Z,98926.41
2019-02-11T01:35:14.248Z,98929.20
2019-02-11T01:40:18.244Z,98928.38
2019-02-11T01:45:22.279Z,98933.17
2019-02-11T01:50:26.332Z,98946.48
2019-02-11T01:55:30.416Z,98973.13
2019-02-11T02:00:34.547Z,98976.38
2019-02-11T02:05:38.616Z,98984.98
2019-02-11T02:10:42.762Z,99010.85
2019-02-11T02:15:46.919Z,99018.41
2019-02-11T02:20:50.952Z,99031.98
2019-02-11T02:25:54.988Z,99052.16
2019-02-11T02:30:59.154Z,99047.94
2019-02-11T02:36:03.180Z,99071.52
2019-02-11T02:41:07.261Z,99074.16
2019-02-11T02:46:11.328Z,99089.56
2019-02-11T02:51:15.382Z,99100.52
2019-02-11T02:56:19.447Z,99103.73
2019-02-11T03:01:23.610Z,99113.34
2019-02-11T03:06:27.685Z,99130.89
2019-02-11T03:11:34.310Z,99139.38
2019-02-11T03:16:37.900Z,99170.12
2019-02-11T03:21:41.973Z,99182.08
2019-02-11T03:26:46.026Z,99195.16
2019-02-11T03:31:50.093Z,99213.61
2019-02-11T03:36:54.129Z,99227.61
2019-02-11T03:41:58.165Z,99231.94
2019-02-11T03:47:02.237Z,99256.14
2019-02-11T03:52:06.265Z,99278.64
2019-02-11T03:57:10.383Z,99293.27
2019-02-11T04:02:14.523Z,99310.20
2019-02-11T04:07:18.952Z,99322.53
2019-02-11T04:12:22.992Z,99335.78
2019-02-11T04:17:27.302Z,99353.53
2019-02-11T04:22:31.629Z,99351.53
2019-02-11T04:27:35.731Z,99373.71
2019-02-11T04:32:39.793Z,99391.89
2019-02-11T04:37:43.911Z,99412.23
2019-02-11T04:42:48.018Z,99432.78
2019-02-11T04:47:52.347Z,99446.80
2019-02-11T04:52:56.412Z,99456.72
2019-02-11T04:58:00.492Z,99471.12
2019-02-11T05:03:04.554Z,99483.56
2019-02-11T05:08:08.623Z,99498.03
2019-02-11T05:13:12.968Z,99517.05
2019-02-11T05:18:17.141Z,99532.09
2019-02-11T05:23:21.242Z,99527.41
2019-02-11T05:28:25.298Z,99538.20
2019-02-11T05:33:29.344Z,99556.11
2019-02-11T05:38:33.417Z,99562.08
2019-02-11T05:43:37.574Z,99574.34
2019-02-11T05:48:41.649Z,99573.70
2019-02-11T05:53:45.701Z,99605.76
2019-02-11T05:58:50.179Z,99620.91
2019-02-11T06:03:54.900Z,99618.92
2019-02-11T06:09:00.219Z,99640.50
2019-02-11T06:14:05.312Z,99642.14
2019-02-11T06:19:09.647Z,99659.98
2019-02-11T06:24:13.692Z,99672.16
2019-02-11T06:29:19.033Z,99692.05
2019-02-11T06:34:23.457Z,99701.34
2019-02-11T06:39:27.953Z,99710.33
2019-02-11T06:44:32.789Z,99718.76
2019-02-11T06:49:36.888Z,99728.03
2019-02-11T06:54:41.273Z,99744.27
2019-02-11T06:59:45.534Z,99751.92
2019-02-11T07:04:50.059Z,99770.01
2019-02-11T07:09:54.172Z,99775.80
2019-02-11T07:14:58.498Z,99804.56
2019-02-11T07:20:02.629Z,99803.72
2019-02-11T07:25:07.943Z,99817.28
2019-02-11T07:30:12.256Z,99826.94
2019-02-11T07:35:16.328Z,99841.02
2019-02-11T07:40:20.810Z,99844.16
2019-02-11T07:45:30.071Z,99857.78
2019-02-11T07:50:30.809Z,99868.94
2019-02-11T07:55:35.094Z,99882.63
2019-02-11T08:00:39.148Z,99895.31
2019-02-11T08:05:43.195Z,99902.02
2019-02-11T08:10:47.551Z,99919.59
2019-02-11T08:15:51.599Z,99915.69
2019-02-11T08:20:55.662Z,99915.41
2019-02-11T08:25:59.711Z,99913.36
2019-02-11T08:31:04.021Z,99931.20
2019-02-11T08:36:09.793Z,99949.86
2019-02-11T08:41:13.842Z,99950.09
2019-02-11T08:46:17.866Z,99944.67
2019-02-11T08:51:21.894Z,99974.94
2019-02-11T08:56:25.947Z,99981.43
2019-02-11T09:01:30.117Z,99985.09
2019-02-11T09:06:35.293Z,100017.86
2019-02-11T09:11:39.338Z,100035.62
2019-02-11T09:16:43.422Z,100051.55
2019-02-11T09:21:47.537Z,100062.86
2019-02-11T09:26:51.890Z,100072.19
2019-02-11T09:31:55.942Z,100074.77
2019-02-11T09:36:59.999Z,100094.51
2019-02-11T09:42:04.015Z,100099.34
2019-02-11T09:47:08.091Z,100095.58
2019-02-11T09:52:12.252Z,100117.08
2019-02-11T09:57:16.374Z,100128.15
2019-02-11T10:02:20.536Z,100140.50
2019-02-11T10:07:24.579Z,100171.12
2019-02-11T10:12:28.647Z,100160.48
2019-02-11T10:17:32.739Z,100162.55
2019-02-11T10:22:36.886Z,100174.97
2019-02-11T10:27:40.996Z,100186.27
2019-02-11T10:32:45.062Z,100189.17
2019-02-11T10:37:50.225Z,100200.70
2019-02-11T10:42:54.305Z,100223.46
2019-02-11T10:47:58.629Z,100244.34
2019-02-11T10:53:03.003Z,100239.12
2019-02-11T10:58:07.796Z,100240.72
2019-02-11T11:03:12.145Z,100255.47
2019-02-11T11:08:16.529Z,100249.23
2019-02-11T11:13:20.697Z,100254.80
2019-02-11T11:18:24.730Z,100266.71
2019-02-11T11:23:29.049Z,100273.42
2019-02-11T11:28:33.290Z,100293.18
2019-02-11T11:33:37.395Z,100303.77
2019-02-11T11:38:41.535Z,100297.30
2019-02-11T11:43:45.567Z,100315.91
2019-02-11T11:48:49.674Z,100314.03
2019-02-11T11:53:53.792Z,100323.49
2019-02-11T11:58:57.886Z,100334.41
2019-02-11T12:04:03.953Z,100337.66
2019-02-11T12:09:07.762Z,100343.20
2019-02-11T12:14:11.864Z,100350.92
2019-02-11T12:19:15.910Z,100359.72
2019-02-11T12:24:19.971Z,100379.35
2019-02-11T12:29:24.040Z,100383.77
2019-02-11T12:34:28.162Z,100390.54
2019-02-11T12:39:32.585Z,100411.55
2019-02-11T12:44:36.645Z,100437.90
2019-02-11T12:49:40.708Z,100452.81
2019-02-11T12:54:44.797Z,100457.11
2019-02-11T12:59:48.886Z,100475.17
2019-02-11T13:04:52.980Z,100480.89
2019-02-11T13:09:57.049Z,100512.33
2019-02-11T13:15:01.100Z,100513.23
2019-02-11T13:20:09.600Z,100529.38
2019-02-11T13:25:12.763Z,100539.83
2019-02-11T13:30:18.090Z,100545.89
2019-02-11T13:35:22.480Z,100555.44
2019-02-11T13:40:26.895Z,100553.05
2019-02-11T13:45:30.947Z,100551.75
2019-02-11T13:50:34.993Z,100586.39
2019-02-11T13:55:39.068Z,100597.97
2019-02-11T14:00:43.376Z,100603.66
2019-02-11T14:05:47.496Z,100602.77
2019-02-11T14:10:51.974Z,100615.30
2019-02-11T14:15:56.335Z,100633.06
2019-02-11T14:21:00.428Z,100644.02
2019-02-11T14:26:04.593Z,100646.58
2019-02-11T14:31:08.616Z,100652.61
2019-02-11T14:36:13.052Z,100665.06
2019-02-11T14:41:17.458Z,100688.14
2019-02-11T14:46:21.526Z,100702.38
2019-02-11T14:51:25.601Z,100722.87
2019-02-11T14:56:29.764Z,100732.34
2019-02-11T15:01:33.912Z,100747.83
2019-02-11T15:06:38.042Z,100749.72
2019-02-11T15:11:42.153Z,100764.42
2019-02-11T15:16:46.298Z,100770.98
2019-02-11T15:21:50.340Z,100785.23
2019-02-11T15:26:54.522Z,100786.17
2019-02-11T15:31:58.589Z,100793.50
2019-02-11T15:37:02.613Z,100807.93
2019-02-11T15:42:06.688Z,100806.06
2019-02-11T15:47:10.792Z,100819.18
2019-02-11T15:52:16.229Z,100825.77
2019-02-11T15:57:20.269Z,100838.24
2019-02-11T16:02:24.353Z,100844.80
2019-02-11T16:07:28.741Z,100855.54
2019-02-11T16:12:34.852Z,100873.16
2019-02-11T16:17:39.000Z,100893.75
2019-02-11T16:22:43.059Z,100907.41
2019-02-11T16:27:47.196Z,100930.08
2019-02-11T16:32:51.301Z,100948.34
2019-02-11T16:37:55.399Z,100979.72
2019-02-11T16:42:59.496Z,100996.52
2019-02-11T16:48:03.641Z,101022.44
2019-02-11T16:53:07.658Z,101024.23
2019-02-11T16:58:12.184Z,101040.19
2019-02-11T17:03:16.263Z,101050.08
2019-02-11T17:08:21.276Z,101064.84
2019-02-11T17:13:25.334Z,101077.52
2019-02-11T17:18:29.411Z,101092.22
2019-02-11T17:23:33.470Z,101114.87
2019-02-11T17:28:37.568Z,101121.85
2019-02-11T17:33:41.661Z,101141.50
2019-02-11T17:38:46.023Z,101151.14
2019-02-11T17:43:50.106Z,101162.45
2019-02-11T17:48:54.179Z,101174.34
2019-02-11T17:53:58.267Z,101188.63
2019-02-11T17:59:04.010Z,101198.38
2019-02-11T18:04:08.082Z,101207.64
2019-02-11T18:09:12.186Z,101219.56
2019-02-11T18:14:16.516Z,101230.97
2019-02-11T18:19:26.002Z,101240.78
2019-02-11T18:24:26.583Z,101261.89
2019-02-11T18:29:30.997Z,101274.97
2019-02-11T18:34:35.230Z,101292.33
2019-02-11T18:39:39.319Z,101297.28
2019-02-11T18:44:43.351Z,101321.58
2019-02-11T18:49:47.406Z,101339.40
2019-02-11T18:54:51.450Z,101347.65
2019-02-11T18:59:55.799Z,101357.30
2019-02-11T19:04:59.886Z,101359.70
2019-02-11T19:10:04.428Z,101357.98
2019-02-11T19:15:09.934Z,101372.51
2019-02-11T19:20:14.532Z,101370.02
2019-02-11T19:25:19.523Z,101376.31
2019-02-11T19:30:23.586Z,101381.42
2019-02-11T19:35:27.648Z,101385.16
2019-02-11T19:40:31.704Z,101402.73
2019-02-11T19:45:38.302Z,101401.52
2019-02-11T19:50:42.517Z,101420.83
2019-02-11T19:55:46.541Z,101432.10
2019-02-11T20:00:50.983Z,101443.50
2019-02-11T20:05:55.393Z,101442.09
2019-02-11T20:10:59.561Z,101453.20
2019-02-11T20:16:03.828Z,101473.30
2019-02-11T20:21:08.836Z,101475.59
2019-02-11T20:26:13.272Z,101484.27
2019-02-11T20:31:17.765Z,101496.78
2019-02-11T20:36:22.620Z,101486.96
2019-02-11T20:41:27.868Z,101498.17
2019-02-11T20:46:33.905Z,101496.45
2019-02-11T20:51:38.730Z,101503.25
2019-02-11T20:56:42.984Z,101519.75
2019-02-11T21:01:51.169Z,101521.84
2019-02-11T21:06:55.372Z,101519.20
2019-02-11T21:12:01.930Z,101516.34
2019-02-11T21:17:06.412Z,101528.44
2019-02-11T21:22:10.623Z,101530.78
2019-02-11T21:27:14.742Z,101536.65
2019-02-11T21:32:19.101Z,101540.91
2019-02-11T21:37:23.165Z,101535.59
2019-02-11T21:42:27.248Z,101549.86
2019-02-11T21:47:31.338Z,101567.60
2019-02-11T21:52:35.423Z,101575.42
2019-02-11T21:57:39.507Z,101571.77
2019-02-11T22:02:44.069Z,101581.00
2019-02-11T22:07:48.277Z,101586.67
2019-02-11T22:12:53.466Z,101593.36
2019-02-11T22:17:57.557Z,101597.03
2019-02-11T22:23:02.004Z,101589.78
2019-02-11T22:28:06.371Z,101591.58
2019-02-11T22:33:10.437Z,101593.05
2019-02-11T22:38:14.503Z,101598.28
2019-02-11T22:43:18.676Z,101615.44
2019-02-11T22:48:22.748Z,101633.35
2019-02-11T22:53:26.974Z,101632.21
2019-02-11T22:58:31.834Z,101643.55
2019-02-11T23:03:36.668Z,101652.04
2019-02-11T23:08:40.761Z,101663.08
2019-02-11T23:13:44.830Z,101674.85
2019-02-11T23:18:48.887Z,101674.48
2019-02-11T23:23:54.849Z,101682.22
2019-02-11T23:28:58.993Z,101680.25
2019-02-11T23:34:03.378Z,101690.64
2019-02-11T23:39:07.627Z,101695.55
2019-02-11T23:44:11.781Z,101695.31
2019-02-11T23:49:15.982Z,101697.97
2019-02-11T23:54:20.383Z,101713.91
2019-02-11T23:59:24.626Z,101720.36
